createdAt,value
2023-04-11T00:00:34.319Z,100.00
2023-04-11T00:03:03.709Z,100.00
2023-04-11T00:05:33.272Z,100.00
2023-04-11T00:08:02.058Z,100.00
2023-04-11T00:10:28.385Z,100.00
2023-04-11T00:12:57.743Z,100.00
2023-04-11T00:15:24.485Z,100.00
2023-04-11T00:17:50.908Z,100.00
2023-04-11T00:20:17.321Z,100.00
2023-04-11T00:22:43.739Z,100.00
2023-04-11T00:25:10.131Z,100.00
2023-04-11T00:27:36.462Z,100.00
2023-04-11T00:30:02.824Z,100.00
2023-04-11T00:32:29.196Z,100.00
2023-04-11T00:34:55.532Z,100.00
2023-04-11T00:37:22.104Z,100.00
2023-04-11T00:39:52.877Z,100.00
2023-04-11T00:42:19.534Z,100.00
2023-04-11T00:44:45.964Z,100.00
2023-04-11T00:47:12.426Z,100.00
2023-04-11T00:49:38.910Z,100.00
2023-04-11T00:52:05.925Z,100.00
2023-04-11T00:54:32.660Z,100.00
2023-04-11T00:56:59.509Z,100.00
2023-04-11T00:59:26.919Z,100.00
2023-04-11T01:01:53.478Z,100.00
2023-04-11T01:04:21.235Z,100.00
2023-04-11T01:06:50.026Z,100.00
2023-04-11T01:09:16.855Z,100.00
2023-04-11T01:11:43.158Z,100.00
2023-04-11T01:14:09.426Z,100.00
2023-04-11T01:16:38.315Z,100.00
2023-04-11T01:19:04.631Z,100.00
2023-04-11T01:21:32.077Z,100.00
2023-04-11T01:23:58.429Z,100.00
2023-04-11T01:26:24.744Z,100.00
2023-04-11T01:28:51.195Z,100.00
2023-04-11T01:31:17.626Z,100.00
2023-04-11T01:33:43.983Z,100.00
2023-04-11T01:36:10.365Z,100.00
2023-04-11T01:38:36.779Z,100.00
2023-04-11T01:41:03.069Z,100.00
2023-04-11T01:43:29.377Z,100.00
2023-04-11T01:45:55.800Z,100.00
2023-04-11T01:48:22.201Z,100.00
2023-04-11T01:50:48.581Z,100.00
2023-04-11T01:53:14.939Z,100.00
2023-04-11T01:55:41.299Z,100.00
2023-04-11T01:58:07.597Z,100.00
2023-04-11T02:00:37.181Z,100.00
2023-04-11T02:03:03.684Z,100.00
2023-04-11T02:05:30.283Z,100.00
2023-04-11T02:07:56.800Z,100.00
2023-04-11T02:10:23.106Z,100.00
2023-04-11T02:12:49.449Z,100.00
2023-04-11T02:15:15.748Z,100.00
2023-04-11T02:17:45.456Z,100.00
2023-04-11T02:20:13.242Z,100.00
2023-04-11T02:22:39.607Z,100.00
2023-04-11T02:25:06.316Z,100.00
2023-04-11T02:27:33.147Z,100.00
2023-04-11T02:30:00.794Z,100.00
2023-04-11T02:32:27.667Z,100.00
2023-04-11T02:34:53.967Z,100.00
2023-04-11T02:37:20.278Z,100.00
2023-04-11T02:39:46.642Z,100.00
2023-04-11T02:42:13.207Z,100.00
2023-04-11T02:44:39.533Z,100.00
2023-04-11T02:47:05.888Z,100.00
2023-04-11T02:49:32.223Z,100.00
2023-04-11T02:51:58.532Z,100.00
2023-04-11T02:54:24.855Z,100.00
2023-04-11T02:56:52.589Z,100.00
2023-04-11T02:59:19.103Z,100.00
2023-04-11T03:01:45.616Z,100.00
2023-04-11T03:04:12.188Z,100.00
2023-04-11T03:06:39.173Z,100.00
2023-04-11T03:09:05.864Z,100.00
2023-04-11T03:11:32.178Z,100.00
2023-04-11T03:13:58.513Z,100.00
2023-04-11T03:16:25.556Z,100.00
2023-04-11T03:18:51.910Z,100.00
2023-04-11T03:21:18.212Z,100.00
2023-04-11T03:23:44.514Z,100.00
2023-04-11T03:26:10.893Z,100.00
2023-04-11T03:28:37.222Z,100.00
2023-04-11T03:31:03.565Z,100.00
2023-04-11T03:33:30.165Z,100.00
2023-04-11T03:35:56.545Z,100.00
2023-04-11T03:38:23.103Z,100.00
2023-04-11T03:40:49.461Z,100.00
2023-04-11T03:43:16.769Z,100.00
2023-04-11T03:45:43.088Z,100.00
2023-04-11T03:48:09.469Z,100.00
2023-04-11T03:50:45.733Z,100.00
2023-04-11T03:53:12.045Z,100.00
2023-04-11T03:55:38.310Z,100.00
2023-04-11T03:58:04.602Z,100.00
2023-04-11T04:00:30.970Z,100.00
2023-04-11T04:02:57.434Z,100.00
2023-04-11T04:05:24.060Z,100.00
2023-04-11T04:07:50.753Z,100.00
2023-04-11T04:10:19.605Z,100.00
2023-04-11T04:12:46.232Z,100.00
2023-04-11T04:15:14.778Z,100.00
2023-04-11T04:17:44.303Z,100.00
2023-04-11T04:20:11.008Z,100.00
2023-04-11T04:22:37.765Z,100.00
2023-04-11T04:25:04.373Z,100.00
2023-04-11T04:27:30.908Z,100.00
2023-04-11T04:30:03.320Z,100.00
2023-04-11T04:32:31.202Z,100.00
2023-04-11T04:34:58.603Z,100.00
2023-04-11T04:37:25.494Z,100.00
2023-04-11T04:39:54.055Z,100.00
2023-04-11T04:42:23.370Z,100.00
2023-04-11T04:44:53.877Z,100.00
2023-04-11T04:47:25.026Z,100.00
2023-04-11T04:49:55.149Z,100.00
2023-04-11T04:52:22.240Z,100.00
2023-04-11T04:54:48.569Z,100.00
2023-04-11T04:57:14.872Z,100.00
2023-04-11T04:59:41.220Z,100.00
2023-04-11T05:02:08.184Z,100.00
2023-04-11T05:04:35.312Z,100.00
2023-04-11T05:07:01.947Z,100.00
2023-04-11T05:09:28.330Z,100.00
2023-04-11T05:11:54.631Z,100.00
2023-04-11T05:14:20.923Z,100.00
2023-04-11T05:16:47.418Z,100.00
2023-04-11T05:19:13.754Z,100.00
2023-04-11T05:21:40.126Z,100.00
2023-04-11T05:24:06.514Z,100.00
2023-04-11T05:26:32.931Z,100.00
2023-04-11T05:28:59.246Z,100.00
2023-04-11T05:31:29.153Z,100.00
2023-04-11T05:33:58.766Z,100.00
2023-04-11T05:36:25.716Z,100.00
2023-04-11T05:38:52.079Z,100.00
2023-04-11T05:41:18.409Z,100.00
2023-04-11T05:43:44.713Z,100.00
2023-04-11T05:46:12.720Z,100.00
2023-04-11T05:48:39.261Z,100.00
2023-04-11T05:51:05.888Z,100.00
2023-04-11T05:53:32.526Z,100.00
2023-04-11T05:55:58.919Z,100.00
2023-04-11T05:58:25.583Z,100.00
2023-04-11T06:00:51.916Z,100.00
2023-04-11T06:03:21.669Z,100.00
2023-04-11T06:05:50.414Z,100.00
2023-04-11T06:08:17.473Z,100.00
2023-04-11T06:10:46.279Z,100.00
2023-04-11T06:13:12.565Z,100.00
2023-04-11T06:15:38.937Z,100.00
2023-04-11T06:18:05.466Z,100.00
2023-04-11T06:20:31.869Z,100.00
2023-04-11T06:23:00.371Z,100.00
2023-04-11T06:25:27.072Z,100.00
2023-04-11T06:27:53.358Z,100.00
2023-04-11T06:30:19.734Z,100.00
2023-04-11T06:32:46.300Z,100.00
2023-04-11T06:35:12.718Z,100.00
2023-04-11T06:37:39.263Z,100.00
2023-04-11T06:40:05.883Z,100.00
2023-04-11T06:42:32.246Z,100.00
2023-04-11T06:44:58.653Z,100.00
2023-04-11T06:47:25.202Z,100.00
2023-04-11T06:49:51.529Z,100.00
2023-04-11T06:52:18.041Z,100.00
2023-04-11T06:54:44.356Z,100.00
2023-04-11T06:57:10.752Z,100.00
2023-04-11T06:59:37.132Z,100.00
2023-04-11T07:02:03.457Z,100.00
2023-04-11T07:04:29.876Z,100.00
2023-04-11T07:06:56.229Z,100.00
2023-04-11T07:09:22.823Z,100.00
2023-04-11T07:11:51.707Z,100.00
2023-04-11T07:14:18.380Z,100.00
2023-04-11T07:16:44.791Z,100.00
2023-04-11T07:19:11.142Z,100.00
2023-04-11T07:21:38.204Z,100.00
2023-04-11T07:24:05.485Z,100.00
2023-04-11T07:26:32.973Z,100.00
2023-04-11T07:29:02.592Z,100.00
2023-04-11T07:31:29.089Z,100.00
2023-04-11T07:33:55.664Z,100.00
2023-04-11T07:36:22.351Z,100.00
2023-04-11T07:38:48.701Z,100.00
2023-04-11T07:41:16.193Z,100.00
2023-04-11T07:43:42.697Z,100.00
2023-04-11T07:46:12.156Z,100.00
2023-04-11T07:48:38.751Z,100.00
2023-04-11T07:51:05.299Z,100.00
2023-04-11T07:53:32.630Z,100.00
2023-04-11T07:55:59.025Z,100.00
2023-04-11T07:58:25.354Z,100.00
2023-04-11T08:00:53.321Z,100.00
2023-04-11T08:03:20.798Z,100.00
2023-04-11T08:05:47.481Z,100.00
2023-04-11T08:08:13.898Z,100.00
2023-04-11T08:10:40.242Z,100.00
2023-04-11T08:13:06.566Z,100.00
2023-04-11T08:15:34.655Z,100.00
2023-04-11T08:18:01.794Z,100.00
2023-04-11T08:20:28.446Z,100.00
2023-04-11T08:22:54.858Z,100.00
2023-04-11T08:25:22.678Z,100.00
2023-04-11T08:27:49.641Z,100.00
2023-04-11T08:30:16.623Z,100.00
2023-04-11T08:32:43.198Z,100.00
2023-04-11T08:35:09.841Z,100.00
2023-04-11T08:37:36.152Z,100.00
2023-04-11T08:40:06.549Z,100.00
2023-04-11T08:42:32.925Z,100.00
2023-04-11T08:45:00.058Z,100.00
2023-04-11T08:47:26.582Z,100.00
2023-04-11T08:49:53.256Z,100.00
2023-04-11T08:52:22.228Z,100.00
2023-04-11T08:54:48.923Z,100.00
2023-04-11T08:57:28.071Z,100.00
2023-04-11T08:59:54.783Z,100.00
2023-04-11T09:02:21.327Z,92.06
2023-04-11T09:04:47.800Z,86.51
2023-04-11T09:07:15.578Z,85.68
2023-04-11T09:09:41.940Z,90.24
2023-04-11T09:12:09.379Z,91.34
2023-04-11T09:14:36.172Z,98.74
2023-04-11T09:17:04.237Z,83.42
2023-04-11T09:19:31.761Z,74.29
2023-04-11T09:22:01.602Z,76.16
2023-04-11T09:24:29.491Z,77.34
2023-04-11T09:27:05.876Z,76.68
2023-04-11T09:29:36.922Z,77.80
2023-04-11T09:32:03.288Z,78.79
2023-04-11T09:34:29.621Z,74.16
2023-04-11T09:36:55.981Z,69.63
2023-04-11T09:39:22.274Z,64.17
2023-04-11T09:41:48.600Z,63.34
2023-04-11T09:44:14.918Z,62.59
2023-04-11T09:46:59.643Z,61.30
2023-04-11T09:49:26.094Z,60.53
2023-04-11T09:51:52.423Z,59.33
2023-04-11T09:54:22.433Z,57.73
2023-04-11T09:56:49.045Z,57.33
2023-04-11T09:59:15.586Z,55.25
2023-04-11T10:01:42.009Z,54.64
2023-04-11T10:04:10.941Z,54.42
2023-04-11T10:06:41.540Z,55.35
2023-04-11T10:09:11.827Z,56.67
2023-04-11T10:11:44.404Z,56.14
2023-04-11T10:14:29.669Z,55.03
2023-04-11T10:17:18.564Z,54.05
2023-04-11T10:19:48.699Z,52.68
2023-04-11T10:22:33.900Z,52.45
2023-04-11T10:25:19.098Z,52.26
2023-04-11T10:27:49.105Z,55.30
2023-04-11T10:30:15.737Z,53.36
2023-04-11T10:32:49.366Z,54.57
2023-04-11T10:35:15.868Z,54.45
2023-04-11T10:37:44.377Z,52.62
2023-04-11T10:40:11.221Z,52.95
2023-04-11T10:42:43.973Z,52.78
2023-04-11T10:45:17.669Z,51.98
2023-04-11T10:48:05.533Z,51.63
2023-04-11T10:50:31.949Z,52.89
2023-04-11T10:52:58.971Z,52.24
2023-04-11T10:55:28.878Z,51.20
2023-04-11T10:58:08.542Z,51.94
2023-04-11T11:01:00.980Z,53.46
2023-04-11T11:03:31.634Z,53.30
2023-04-11T11:06:03.777Z,50.45
2023-04-11T11:08:41.772Z,50.17
2023-04-11T11:11:08.709Z,48.00
2023-04-11T11:13:51.932Z,46.02
2023-04-11T11:16:23.733Z,46.97
2023-04-11T11:18:53.865Z,48.61
2023-04-11T11:21:27.706Z,47.31
2023-04-11T11:23:55.174Z,49.02
2023-04-11T11:26:22.008Z,51.44
2023-04-11T11:28:48.553Z,51.69
2023-04-11T11:31:14.849Z,59.79
2023-04-11T11:33:44.122Z,62.94
2023-04-11T11:36:11.052Z,65.86
2023-04-11T11:38:37.367Z,74.10
2023-04-11T11:41:03.684Z,96.96
2023-04-11T11:43:30.192Z,100.00
2023-04-11T11:46:07.383Z,100.00
2023-04-11T11:48:35.004Z,100.00
2023-04-11T11:51:01.361Z,82.56
2023-04-11T11:53:27.684Z,63.33
2023-04-11T11:55:54.369Z,59.91
2023-04-11T11:58:20.704Z,60.85
2023-04-11T12:00:50.307Z,56.26
2023-04-11T12:03:18.238Z,52.79
2023-04-11T12:05:44.717Z,52.73
2023-04-11T12:08:11.448Z,50.15
2023-04-11T12:10:37.717Z,50.00
2023-04-11T12:13:11.161Z,50.49
2023-04-11T12:15:37.672Z,49.41
2023-04-11T12:18:05.366Z,48.76
2023-04-11T12:20:32.479Z,48.17
2023-04-11T12:22:58.986Z,48.07
2023-04-11T12:25:28.252Z,50.27
2023-04-11T12:27:54.663Z,48.61
2023-04-11T12:30:21.009Z,48.51
2023-04-11T12:32:47.422Z,48.32
2023-04-11T12:35:13.863Z,46.86
2023-04-11T12:37:40.358Z,45.73
2023-04-11T12:40:10.768Z,46.44
2023-04-11T12:42:45.772Z,43.65
2023-04-11T12:45:19.731Z,43.45
2023-04-11T12:47:48.497Z,43.01
2023-04-11T12:50:14.840Z,44.30
2023-04-11T12:52:41.625Z,45.38
2023-04-11T12:55:09.217Z,46.43
2023-04-11T12:57:36.393Z,47.41
2023-04-11T13:00:06.926Z,47.93
2023-04-11T13:02:42.258Z,47.88
2023-04-11T13:05:11.211Z,45.98
2023-04-11T13:07:38.061Z,44.74
2023-04-11T13:10:07.127Z,43.31
2023-04-11T13:12:39.461Z,43.14
2023-04-11T13:15:06.256Z,41.53
2023-04-11T13:17:32.665Z,42.03
2023-04-11T13:19:58.990Z,43.63
2023-04-11T13:22:25.739Z,44.18
2023-04-11T13:24:59.534Z,43.48
2023-04-11T13:27:25.811Z,42.65
2023-04-11T13:29:52.119Z,42.02
2023-04-11T13:32:18.406Z,41.96
2023-04-11T13:34:44.684Z,41.58
2023-04-11T13:37:10.980Z,40.21
2023-04-11T13:39:37.379Z,40.17
2023-04-11T13:42:03.679Z,39.92
2023-04-11T13:44:29.998Z,41.61
2023-04-11T13:46:56.502Z,41.95
2023-04-11T13:49:22.775Z,40.69
2023-04-11T13:51:49.157Z,41.03
2023-04-11T13:54:15.529Z,40.10
2023-04-11T13:56:41.991Z,39.64
2023-04-11T13:59:08.363Z,38.98
2023-04-11T14:01:34.724Z,38.80
2023-04-11T14:04:01.578Z,38.66
2023-04-11T14:06:28.240Z,38.56
2023-04-11T14:08:54.629Z,38.29
2023-04-11T14:11:21.546Z,38.49
2023-04-11T14:13:47.860Z,37.67
2023-04-11T14:16:14.189Z,37.57
2023-04-11T14:18:40.737Z,38.31
2023-04-11T14:21:07.948Z,38.53
2023-04-11T14:23:34.372Z,37.78
2023-04-11T14:26:00.821Z,37.14
2023-04-11T14:28:27.155Z,36.86
2023-04-11T14:30:56.424Z,36.64
2023-04-11T14:33:23.056Z,36.21
2023-04-11T14:35:52.730Z,36.74
2023-04-11T14:38:19.090Z,36.36
2023-04-11T14:40:45.404Z,36.47
2023-04-11T14:43:12.136Z,36.55
2023-04-11T14:45:38.444Z,35.91
2023-04-11T14:48:04.931Z,36.89
2023-04-11T14:50:32.205Z,36.40
2023-04-11T14:52:58.495Z,36.60
2023-04-11T14:55:24.799Z,37.10
2023-04-11T14:57:51.832Z,35.93
2023-04-11T15:00:19.892Z,35.31
2023-04-11T15:02:47.358Z,35.92
2023-04-11T15:05:14.933Z,35.54
2023-04-11T15:07:41.259Z,36.50
2023-04-11T15:10:07.990Z,36.95
2023-04-11T15:12:34.443Z,37.46
2023-04-11T15:15:00.766Z,38.49
2023-04-11T15:17:30.969Z,38.83
2023-04-11T15:20:05.785Z,37.24
2023-04-11T15:22:32.281Z,37.54
2023-04-11T15:24:58.639Z,37.84
2023-04-11T15:27:25.986Z,37.42
2023-04-11T15:29:52.321Z,37.23
2023-04-11T15:32:19.945Z,37.27
2023-04-11T15:34:46.241Z,37.60
2023-04-11T15:37:13.320Z,38.01
2023-04-11T15:39:39.619Z,39.44
2023-04-11T15:42:08.561Z,40.75
2023-04-11T15:44:34.839Z,40.36
2023-04-11T15:47:01.468Z,40.16
2023-04-11T15:49:27.835Z,39.16
2023-04-11T15:51:54.143Z,38.90
2023-04-11T15:54:20.484Z,38.86
2023-04-11T15:56:46.822Z,38.93
2023-04-11T15:59:15.497Z,38.78
2023-04-11T16:01:41.896Z,38.83
2023-04-11T16:04:09.018Z,39.20
2023-04-11T16:06:37.901Z,40.14
2023-04-11T16:09:04.358Z,39.63
2023-04-11T16:11:30.786Z,40.04
2023-04-11T16:13:57.521Z,40.81
2023-04-11T16:16:26.598Z,40.26
2023-04-11T16:18:52.937Z,40.46
2023-04-11T16:21:19.753Z,40.65
2023-04-11T16:23:46.239Z,40.52
2023-04-11T16:26:12.784Z,40.68
2023-04-11T16:28:39.074Z,41.27
2023-04-11T16:31:05.484Z,41.49
2023-04-11T16:33:31.887Z,41.61
2023-04-11T16:36:07.586Z,42.15
2023-04-11T16:38:33.911Z,42.30
2023-04-11T16:41:00.444Z,42.18
2023-04-11T16:43:26.769Z,42.12
2023-04-11T16:45:53.407Z,42.35
2023-04-11T16:48:19.806Z,42.48
2023-04-11T16:50:48.484Z,43.02
2023-04-11T16:53:22.394Z,43.14
2023-04-11T16:55:48.703Z,44.19
2023-04-11T16:58:16.336Z,43.83
2023-04-11T17:00:50.458Z,44.33
2023-04-11T17:03:20.290Z,44.36
2023-04-11T17:05:49.554Z,44.42
2023-04-11T17:08:32.425Z,44.74
2023-04-11T17:11:06.784Z,44.57
2023-04-11T17:13:33.300Z,44.81
2023-04-11T17:16:07.252Z,44.81
2023-04-11T17:18:36.847Z,45.74
2023-04-11T17:21:07.965Z,46.01
2023-04-11T17:23:42.948Z,45.80
2023-04-11T17:26:09.978Z,46.32
2023-04-11T17:28:40.115Z,47.13
2023-04-11T17:31:13.463Z,48.08
2023-04-11T17:33:48.906Z,47.30
2023-04-11T17:36:20.330Z,48.04
2023-04-11T17:38:52.596Z,48.49
2023-04-11T17:41:19.183Z,48.59
2023-04-11T17:43:45.701Z,48.85
2023-04-11T17:46:12.846Z,49.02
2023-04-11T17:48:46.119Z,49.64
2023-04-11T17:51:12.390Z,50.13
2023-04-11T17:53:40.431Z,50.12
2023-04-11T17:56:07.521Z,51.16
2023-04-11T17:58:33.943Z,52.00
2023-04-11T18:01:04.463Z,52.28
2023-04-11T18:03:34.733Z,53.01
2023-04-11T18:06:04.231Z,53.51
2023-04-11T18:08:49.236Z,54.17
2023-04-11T18:11:19.760Z,56.24
2023-04-11T18:13:48.294Z,56.84
2023-04-11T18:16:16.374Z,56.94
2023-04-11T18:18:43.145Z,57.03
2023-04-11T18:21:09.486Z,57.19
2023-04-11T18:23:35.898Z,57.94
2023-04-11T18:26:02.246Z,58.21
2023-04-11T18:28:29.167Z,59.58
2023-04-11T18:31:32.154Z,61.73
2023-04-11T18:34:08.281Z,63.37
2023-04-11T18:36:35.082Z,64.97
2023-04-11T18:39:01.400Z,65.19
2023-04-11T18:41:27.764Z,67.01
2023-04-11T18:43:54.255Z,69.17
2023-04-11T18:46:29.684Z,69.80
2023-04-11T18:49:08.286Z,70.37
2023-04-11T18:51:35.554Z,73.03
2023-04-11T18:54:07.200Z,75.39
2023-04-11T18:56:34.324Z,76.86
2023-04-11T18:59:05.028Z,80.23
2023-04-11T19:01:32.790Z,81.91
2023-04-11T19:04:06.444Z,82.55
2023-04-11T19:06:33.708Z,87.71
2023-04-11T19:09:00.152Z,96.38
2023-04-11T19:11:31.455Z,96.95
2023-04-11T19:16:26.516Z,100.00
2023-04-11T19:18:52.862Z,100.00
2023-04-11T19:21:19.425Z,100.00
2023-04-11T19:23:45.837Z,100.00
2023-04-11T19:26:21.515Z,100.00
2023-04-11T19:28:48.396Z,100.00
2023-04-11T19:31:14.694Z,100.00
2023-04-11T19:33:41.023Z,100.00
2023-04-11T19:36:12.982Z,100.00
2023-04-11T19:38:39.617Z,100.00
2023-04-11T19:41:16.067Z,100.00
2023-04-11T19:43:44.095Z,100.00
2023-04-11T19:46:13.419Z,100.00
2023-04-11T19:48:40.636Z,100.00
2023-04-11T19:51:07.179Z,100.00
2023-04-11T19:53:38.023Z,100.00
2023-04-11T19:56:07.596Z,100.00
2023-04-11T19:58:40.683Z,100.00
2023-04-11T20:01:09.540Z,100.00
2023-04-11T20:03:36.145Z,100.00
2023-04-11T20:06:05.742Z,100.00
2023-04-11T20:08:32.512Z,100.00
2023-04-11T20:11:04.023Z,100.00
2023-04-11T20:13:30.793Z,100.00
2023-04-11T20:15:57.111Z,100.00
2023-04-11T20:18:23.428Z,100.00
2023-04-11T20:20:51.546Z,100.00
2023-04-11T20:23:17.847Z,100.00
2023-04-11T20:25:44.208Z,100.00
2023-04-11T20:28:13.612Z,100.00
2023-04-11T20:31:03.852Z,100.00
2023-04-11T20:33:30.428Z,100.00
2023-04-11T20:35:56.953Z,100.00
2023-04-11T20:38:23.537Z,100.00
2023-04-11T20:40:49.861Z,100.00
2023-04-11T20:43:24.075Z,100.00
2023-04-11T20:45:55.613Z,100.00
2023-04-11T20:48:21.904Z,100.00
2023-04-11T20:50:48.411Z,100.00
2023-04-11T20:53:14.726Z,100.00
2023-04-11T20:55:41.183Z,100.00
2023-04-11T20:58:12.017Z,100.00
2023-04-11T21:00:39.890Z,100.00
2023-04-11T21:03:11.046Z,100.00
2023-04-11T21:05:37.881Z,100.00
2023-04-11T21:08:06.544Z,100.00
2023-04-11T21:10:32.887Z,100.00
2023-04-11T21:12:59.166Z,100.00
2023-04-11T21:15:25.567Z,100.00
2023-04-11T21:17:52.133Z,100.00
2023-04-11T21:20:19.448Z,100.00
2023-04-11T21:23:14.766Z,100.00
2023-04-11T21:25:41.227Z,100.00
2023-04-11T21:28:07.515Z,100.00
2023-04-11T21:30:33.845Z,100.00
2023-04-11T21:33:00.228Z,100.00
2023-04-11T21:35:26.536Z,100.00
2023-04-11T21:37:53.091Z,100.00
2023-04-11T21:40:19.402Z,100.00
2023-04-11T21:42:48.441Z,100.00
2023-04-11T21:45:14.780Z,100.00
2023-04-11T21:47:41.141Z,100.00
2023-04-11T21:50:07.832Z,100.00
2023-04-11T21:52:34.309Z,100.00
2023-04-11T21:55:08.159Z,100.00
2023-04-11T21:57:35.335Z,100.00
2023-04-11T22:00:01.843Z,100.00
2023-04-11T22:02:28.359Z,100.00
2023-04-11T22:05:05.676Z,100.00
2023-04-11T22:07:48.299Z,100.00
2023-04-11T22:10:15.136Z,100.00
2023-04-11T22:12:43.704Z,100.00
2023-04-11T22:15:12.687Z,100.00
2023-04-11T22:17:42.247Z,100.00
2023-04-11T22:20:09.833Z,100.00
2023-04-11T22:22:38.726Z,100.00
2023-04-11T22:25:05.263Z,100.00
2023-04-11T22:27:34.210Z,100.00
2023-04-11T22:30:04.975Z,100.00
2023-04-11T22:32:31.608Z,100.00
2023-04-11T22:34:59.390Z,100.00
2023-04-11T22:37:26.121Z,100.00
2023-04-11T22:40:00.982Z,100.00
2023-04-11T22:42:27.231Z,100.00
2023-04-11T22:44:53.538Z,100.00
2023-04-11T22:47:21.605Z,100.00
2023-04-11T22:49:47.993Z,100.00
2023-04-11T22:52:14.887Z,100.00
2023-04-11T22:54:41.901Z,100.00
2023-04-11T22:57:08.224Z,100.00
2023-04-11T22:59:34.666Z,100.00
2023-04-11T23:02:01.303Z,100.00
2023-04-11T23:04:27.680Z,100.00
2023-04-11T23:06:54.233Z,100.00
2023-04-11T23:09:21.066Z,100.00
2023-04-11T23:11:47.651Z,100.00
2023-04-11T23:14:14.328Z,100.00
2023-04-11T23:16:44.242Z,100.00
2023-04-11T23:19:19.586Z,100.00
2023-04-11T23:21:45.926Z,100.00
2023-04-11T23:24:12.272Z,100.00
2023-04-11T23:26:44.167Z,100.00
2023-04-11T23:29:10.718Z,100.00
2023-04-11T23:31:36.985Z,100.00
2023-04-11T23:34:03.279Z,100.00
2023-04-11T23:36:32.008Z,100.00
2023-04-11T23:39:01.867Z,100.00
2023-04-11T23:41:30.112Z,100.00
2023-04-11T23:43:56.778Z,100.00
2023-04-11T23:46:23.693Z,100.00
2023-04-11T23:48:50.061Z,100.00
2023-04-11T23:51:16.581Z,100.00
2023-04-11T23:53:42.941Z,100.00
2023-04-11T23:56:09.449Z,100.00
2023-04-11T23:58:35.968Z,100.00
